Time;durP1;ratioP1;P1;durP2;ratioP2;P2;SDS_P1;SDS_P2;PMS_P1;PMS_P2;Temp;Humidity;BMP_temperature;BMP_pressure;BME280_temperature;BME280_humidity;BME280_pressure;Samples;Min_cycle;Max_cycle;Signal;HPM_P1;HPM_P2
2023/03/04 00:00:11;;;;;;;2.10;1.43;;;;;;;;;;5016335;28;20235;-82
2023/03/04 00:02:40;;;;;;;2.80;1.60;;;;;;;;;;5016858;28;20227;-82
2023/03/04 00:05:08;;;;;;;5.47;1.83;;;;;;;;;;5016524;28;20204;-82
2023/03/04 00:07:37;;;;;;;5.27;2.00;;;;;;;;;;5016697;28;20303;-82
2023/03/04 00:10:05;;;;;;;7.50;2.07;;;;;;;;;;5015623;28;20204;-82
2023/03/04 00:12:34;;;;;;;4.80;2.77;;;;;;;;;;5016128;28;20214;-81
2023/03/04 00:15:04;;;;;;;3.03;1.70;;;;;;;;;;5015726;28;20210;-81
2023/03/04 00:17:32;;;;;;;10.10;2.73;;;;;;;;;;5016474;28;20238;-81
2023/03/04 00:20:01;;;;;;;8.27;1.87;;;;;;;;;;5016206;28;20243;-81
2023/03/04 00:22:29;;;;;;;4.83;2.50;;;;;;;;;;5016146;28;20195;-81
2023/03/04 00:24:58;;;;;;;3.77;2.00;;;;;;;;;;5016021;28;20219;-81
2023/03/04 00:27:26;;;;;;;1.83;1.70;;;;;;;;;;5015720;28;20231;-81
2023/03/04 00:29:54;;;;;;;2.33;1.57;;;;;;;;;;5016327;28;20226;-81
2023/03/04 00:32:24;;;;;;;4.27;2.00;;;;;;;;;;5016088;28;20204;-81
2023/03/04 00:34:53;;;;;;;1.77;1.67;;;;;;;;;;5015590;28;20220;-82
2023/03/04 00:37:21;;;;;;;2.90;1.43;;;;;;;;;;5015939;28;20207;-82
2023/03/04 00:39:49;;;;;;;6.10;4.83;;;;;;;;;;5015593;28;20231;-82
2023/03/04 00:42:18;;;;;;;3.77;2.23;;;;;;;;;;5015784;28;20205;-82
2023/03/04 00:44:48;;;;;;;2.50;2.30;;;;;;;;;;5015383;28;20259;-82
2023/03/04 00:47:16;;;;;;;4.27;1.77;;;;;;;;;;5015872;28;20202;-82
2023/03/04 00:49:46;;;;;;;1.20;1.20;;;;;;;;;;5015680;28;20242;-83
2023/03/04 00:52:15;;;;;;;3.37;2.40;;;;;;;;;;5015547;28;20199;-82
2023/03/04 00:54:43;;;;;;;1.77;1.53;;;;;;;;;;5015320;28;20287;-82
2023/03/04 00:57:11;;;;;;;1.27;1.27;;;;;;;;;;5014882;28;20338;-82
2023/03/04 00:59:42;;;;;;;2.77;1.57;;;;;;;;;;5014791;28;20235;-82
2023/03/04 01:02:11;;;;;;;2.77;2.43;;;;;;;;;;5015398;28;20200;-82
2023/03/04 01:04:42;;;;;;;1.90;1.73;;;;;;;;;;5014921;28;20327;-82
2023/03/04 01:07:12;;;;;;;1.90;1.57;;;;;;;;;;5014870;28;20259;-82
2023/03/04 01:09:40;;;;;;;2.23;1.57;;;;;;;;;;5014588;28;20203;-82
2023/03/04 01:12:09;;;;;;;4.67;1.10;;;;;;;;;;5014601;28;20235;-82
2023/03/04 01:14:37;;;;;;;7.90;2.07;;;;;;;;;;5014418;28;20200;-82
2023/03/04 01:17:06;;;;;;;3.23;1.70;;;;;;;;;;5014764;28;20223;-82
2023/03/04 01:19:34;;;;;;;3.87;1.90;;;;;;;;;;5014702;28;20517;-82
2023/03/04 01:22:02;;;;;;;1.93;1.73;;;;;;;;;;5014686;28;20215;-82
2023/03/04 01:24:35;;;;;;;1.63;1.53;;;;;;;;;;5014798;28;20274;-82
2023/03/04 01:27:03;;;;;;;3.23;1.63;;;;;;;;;;5014102;28;20254;-82
2023/03/04 01:29:32;;;;;;;3.03;1.67;;;;;;;;;;5015069;28;20231;-82
2023/03/04 01:32:00;;;;;;;3.13;1.93;;;;;;;;;;5014318;28;20258;-82
2023/03/04 01:34:29;;;;;;;8.03;1.63;;;;;;;;;;5014717;28;20195;-82
2023/03/04 01:36:57;;;;;;;1.10;1.10;;;;;;;;;;5014986;28;20272;-82
2023/03/04 01:39:25;;;;;;;4.90;2.40;;;;;;;;;;5014667;28;20296;-82
2023/03/04 01:41:55;;;;;;;2.03;1.53;;;;;;;;;;5014406;28;20200;-82
2023/03/04 01:44:24;;;;;;;3.20;1.60;;;;;;;;;;5014098;28;20255;-82
2023/03/04 01:46:53;;;;;;;2.37;1.93;;;;;;;;;;5014049;28;20191;-82
2023/03/04 01:49:21;;;;;;;4.30;2.40;;;;;;;;;;5014574;28;20228;-82
2023/03/04 01:51:52;;;;;;;1.40;1.30;;;;;;;;;;5014456;28;20200;-82
2023/03/04 01:54:20;;;;;;;3.73;1.87;;;;;;;;;;5014472;28;20195;-82
2023/03/04 01:56:49;;;;;;;7.97;1.53;;;;;;;;;;5014181;28;20322;-82
2023/03/04 01:59:20;;;;;;;2.73;2.37;;;;;;;;;;5014035;28;20294;-82
2023/03/04 02:01:49;;;;;;;3.23;1.47;;;;;;;;;;5014325;28;20207;-82
2023/03/04 02:04:19;;;;;;;1.57;1.37;;;;;;;;;;5013869;28;20251;-82
2023/03/04 02:06:48;;;;;;;2.60;1.70;;;;;;;;;;5013888;28;20205;-82
2023/03/04 02:09:17;;;;;;;1.40;1.40;;;;;;;;;;5013988;28;20257;-82
2023/03/04 02:11:46;;;;;;;1.07;1.07;;;;;;;;;;5013666;28;20208;-82
2023/03/04 02:14:15;;;;;;;1.20;1.20;;;;;;;;;;5014134;28;20231;-82
2023/03/04 02:16:45;;;;;;;6.97;2.40;;;;;;;;;;5013982;28;20270;-82
2023/03/04 02:19:16;;;;;;;2.63;2.33;;;;;;;;;;5014370;28;20233;-82
2023/03/04 02:21:45;;;;;;;0.80;0.80;;;;;;;;;;5014050;28;20208;-82
2023/03/04 02:24:16;;;;;;;6.93;2.50;;;;;;;;;;5013996;28;20262;-82
2023/03/04 02:26:46;;;;;;;1.60;1.47;;;;;;;;;;5014189;28;20204;-82
2023/03/04 02:29:16;;;;;;;3.93;2.10;;;;;;;;;;5014444;28;20210;-82
2023/03/04 02:31:45;;;;;;;1.40;1.13;;;;;;;;;;5014358;28;20196;-82
2023/03/04 02:34:15;;;;;;;0.93;0.93;;;;;;;;;;5013971;28;20203;-82
2023/03/04 02:36:44;;;;;;;2.43;2.03;;;;;;;;;;5013983;28;20219;-82
2023/03/04 02:39:28;;;;;;;4.80;1.83;;;;;;;;;;5015884;28;20288;-82
2023/03/04 02:41:59;;;;;;;1.17;1.10;;;;;;;;;;5017804;28;20249;-82
2023/03/04 02:44:28;;;;;;;1.97;1.30;;;;;;;;;;5017420;28;20494;-82
2023/03/04 02:46:57;;;;;;;0.93;0.93;;;;;;;;;;5017176;28;20262;-82
2023/03/04 02:49:26;;;;;;;3.67;1.70;;;;;;;;;;5017912;28;20243;-82
2023/03/04 02:51:59;;;;;;;2.43;1.33;;;;;;;;;;5017344;28;20228;-82
2023/03/04 02:54:28;;;;;;;17.87;2.67;;;;;;;;;;5017450;28;20255;-82
2023/03/04 02:56:57;;;;;;;7.17;1.97;;;;;;;;;;5017049;28;20462;-81
2023/03/04 02:59:27;;;;;;;3.50;1.77;;;;;;;;;;5017437;28;20204;-82
2023/03/04 03:01:55;;;;;;;2.00;1.87;;;;;;;;;;5017354;28;20220;-82
2023/03/04 03:04:24;;;;;;;5.30;1.63;;;;;;;;;;5017023;28;20218;-82
2023/03/04 03:06:53;;;;;;;3.60;1.90;;;;;;;;;;5017385;28;20429;-82
2023/03/04 03:09:21;;;;;;;2.17;1.93;;;;;;;;;;5017012;28;20200;-82
2023/03/04 03:11:50;;;;;;;1.40;1.27;;;;;;;;;;5016946;28;20198;-82
2023/03/04 03:14:18;;;;;;;1.40;1.30;;;;;;;;;;5017286;28;20207;-81
2023/03/04 03:16:48;;;;;;;5.23;1.57;;;;;;;;;;5016842;28;20231;-82
2023/03/04 03:19:16;;;;;;;3.40;1.87;;;;;;;;;;5017004;28;20230;-81
2023/03/04 03:21:45;;;;;;;2.40;2.20;;;;;;;;;;5017122;28;20227;-82
2023/03/04 03:24:14;;;;;;;2.30;1.60;;;;;;;;;;5016466;28;20195;-81
2023/03/04 03:26:42;;;;;;;8.67;2.33;;;;;;;;;;5017058;28;20204;-81
2023/03/04 03:29:10;;;;;;;8.10;2.73;;;;;;;;;;5017069;28;20290;-81
2023/03/04 03:31:39;;;;;;;1.30;1.30;;;;;;;;;;5016540;28;20207;-81
2023/03/04 03:34:09;;;;;;;2.67;1.90;;;;;;;;;;5017517;28;20226;-81
2023/03/04 03:36:37;;;;;;;2.37;1.40;;;;;;;;;;5016849;28;20295;-81
2023/03/04 03:39:06;;;;;;;1.67;1.57;;;;;;;;;;5016491;28;20293;-82
2023/03/04 03:41:34;;;;;;;4.50;1.67;;;;;;;;;;5016661;28;20258;-81
2023/03/04 03:44:02;;;;;;;1.47;1.37;;;;;;;;;;5016411;28;20191;-82
2023/03/04 03:46:31;;;;;;;2.63;1.73;;;;;;;;;;5016461;28;20254;-82
2023/03/04 03:48:59;;;;;;;5.83;1.90;;;;;;;;;;5016277;28;20238;-82
2023/03/04 03:51:29;;;;;;;2.97;1.93;;;;;;;;;;5016526;28;20298;-82
2023/03/04 03:53:57;;;;;;;1.33;1.17;;;;;;;;;;5015979;28;20224;-82
2023/03/04 03:56:26;;;;;;;5.43;1.87;;;;;;;;;;5016260;28;20231;-82
2023/03/04 03:58:56;;;;;;;1.33;1.20;;;;;;;;;;5016521;28;20241;-82
2023/03/04 04:01:24;;;;;;;1.00;1.00;;;;;;;;;;5016148;28;20226;-82
2023/03/04 04:03:53;;;;;;;2.60;2.37;;;;;;;;;;5015902;28;20202;-83
2023/03/04 04:06:21;;;;;;;1.10;1.10;;;;;;;;;;5016194;28;20293;-82
2023/03/04 04:08:51;;;;;;;2.30;1.03;;;;;;;;;;5016086;28;20203;-82
2023/03/04 04:11:19;;;;;;;1.73;1.63;;;;;;;;;;5016194;28;20259;-82
2023/03/04 04:13:47;;;;;;;1.97;1.90;;;;;;;;;;5016010;28;20204;-82
2023/03/04 04:16:16;;;;;;;2.30;1.57;;;;;;;;;;5015576;28;20184;-82
2023/03/04 04:18:44;;;;;;;2.30;1.50;;;;;;;;;;5015893;28;20222;-82
2023/03/04 04:21:13;;;;;;;4.73;1.30;;;;;;;;;;5015305;28;20203;-81
2023/03/04 04:23:41;;;;;;;8.13;2.50;;;;;;;;;;5015420;28;20287;-82
2023/03/04 04:26:11;;;;;;;4.90;1.57;;;;;;;;;;5015359;28;20263;-82
2023/03/04 04:28:39;;;;;;;2.23;2.03;;;;;;;;;;5016020;28;20206;-82
2023/03/04 04:31:08;;;;;;;4.73;1.73;;;;;;;;;;5015413;28;20262;-82
2023/03/04 04:33:37;;;;;;;1.30;1.20;;;;;;;;;;5015712;28;20199;-82
2023/03/04 04:36:06;;;;;;;2.93;1.37;;;;;;;;;;5015438;28;20212;-82
2023/03/04 04:38:34;;;;;;;1.93;1.70;;;;;;;;;;5015356;28;20199;-82
2023/03/04 04:41:17;;;;;;;5.33;1.43;;;;;;;;;;5015702;28;20215;-82
2023/03/04 04:43:47;;;;;;;3.77;2.13;;;;;;;;;;5015356;28;20203;-82
2023/03/04 04:46:16;;;;;;;7.47;2.30;;;;;;;;;;5015069;28;20208;-82
2023/03/04 04:48:45;;;;;;;1.67;1.57;;;;;;;;;;5015359;28;20250;-81
2023/03/04 04:51:15;;;;;;;3.37;1.20;;;;;;;;;;5015574;28;20261;-81
2023/03/04 04:53:44;;;;;;;0.90;0.90;;;;;;;;;;5015475;28;20268;-81
2023/03/04 04:56:13;;;;;;;1.70;1.53;;;;;;;;;;5015062;28;20261;-82
2023/03/04 04:58:42;;;;;;;6.67;2.03;;;;;;;;;;5015432;28;20231;-82
2023/03/04 05:01:12;;;;;;;3.27;1.63;;;;;;;;;;5014810;28;20211;-82
2023/03/04 05:03:40;;;;;;;2.73;2.30;;;;;;;;;;5014986;28;20206;-82
2023/03/04 05:06:10;;;;;;;5.00;1.80;;;;;;;;;;5015106;28;20228;-82
2023/03/04 05:08:38;;;;;;;3.40;1.20;;;;;;;;;;5014948;28;20235;-82
2023/03/04 05:11:07;;;;;;;5.13;1.97;;;;;;;;;;5014800;28;20245;-82
2023/03/04 05:13:36;;;;;;;1.67;1.43;;;;;;;;;;5014688;28;20262;-82
2023/03/04 05:16:04;;;;;;;4.30;1.70;;;;;;;;;;5014595;28;20195;-82
2023/03/04 05:18:34;;;;;;;2.77;2.40;;;;;;;;;;5014815;28;20192;-82
2023/03/04 05:21:04;;;;;;;1.03;1.03;;;;;;;;;;5014665;28;20204;-82
2023/03/04 05:23:33;;;;;;;1.30;1.17;;;;;;;;;;5014659;28;20215;-81
2023/03/04 05:26:02;;;;;;;3.83;1.93;;;;;;;;;;5014656;28;20539;-82
2023/03/04 05:28:30;;;;;;;2.00;1.47;;;;;;;;;;5014410;28;20230;-82
2023/03/04 05:30:59;;;;;;;1.70;1.37;;;;;;;;;;5014170;28;20231;-82
2023/03/04 05:33:28;;;;;;;2.73;1.20;;;;;;;;;;5014520;28;20203;-81
2023/03/04 05:35:57;;;;;;;1.53;1.23;;;;;;;;;;5014437;28;20315;-81
2023/03/04 05:38:26;;;;;;;2.13;1.10;;;;;;;;;;5014817;28;20199;-82
2023/03/04 05:40:58;;;;;;;0.97;0.97;;;;;;;;;;5014613;28;20261;-81
2023/03/04 05:43:26;;;;;;;2.53;1.33;;;;;;;;;;5014849;28;20299;-81
2023/03/04 05:45:55;;;;;;;2.40;1.17;;;;;;;;;;5014729;28;20219;-82
2023/03/04 05:48:23;;;;;;;0.83;0.83;;;;;;;;;;5015128;28;20196;-81
2023/03/04 05:50:55;;;;;;;1.77;1.37;;;;;;;;;;5014898;28;20207;-81
2023/03/04 05:53:25;;;;;;;0.80;0.80;;;;;;;;;;5015417;28;20201;-81
2023/03/04 05:55:53;;;;;;;0.80;0.80;;;;;;;;;;5014990;28;20192;-82
2023/03/04 05:58:22;;;;;;;0.80;0.80;;;;;;;;;;5014393;28;20236;-82
2023/03/04 06:00:50;;;;;;;1.43;1.33;;;;;;;;;;5014327;28;20196;-82
2023/03/04 06:03:20;;;;;;;0.87;0.87;;;;;;;;;;5015136;28;20203;-82
2023/03/04 06:05:48;;;;;;;1.03;1.03;;;;;;;;;;5014427;28;20310;-82
2023/03/04 06:08:17;;;;;;;1.70;1.40;;;;;;;;;;5014111;28;20301;-82
2023/03/04 06:10:47;;;;;;;1.93;1.40;;;;;;;;;;5014025;28;20242;-82
2023/03/04 06:13:15;;;;;;;1.37;1.00;;;;;;;;;;5013358;28;20200;-82
2023/03/04 06:15:43;;;;;;;1.10;1.10;;;;;;;;;;5014080;28;20227;-82
2023/03/04 06:18:12;;;;;;;5.90;1.17;;;;;;;;;;5014235;28;20234;-81
2023/03/04 06:20:41;;;;;;;1.43;1.43;;;;;;;;;;5013847;28;20212;-81
2023/03/04 06:23:09;;;;;;;2.50;1.00;;;;;;;;;;5014080;28;20208;-81
2023/03/04 06:25:37;;;;;;;2.53;1.73;;;;;;;;;;5014096;28;20229;-81
2023/03/04 06:28:07;;;;;;;3.63;1.13;;;;;;;;;;5013195;28;20215;-81
2023/03/04 06:30:36;;;;;;;0.97;0.97;;;;;;;;;;5013534;28;20211;-81
2023/03/04 06:33:04;;;;;;;1.13;1.13;;;;;;;;;;5013562;28;20214;-81
2023/03/04 06:35:32;;;;;;;0.80;0.80;;;;;;;;;;5013903;28;20195;-82
2023/03/04 06:38:01;;;;;;;0.80;0.80;;;;;;;;;;5014021;28;20223;-82
2023/03/04 06:40:29;;;;;;;0.80;0.80;;;;;;;;;;5013326;28;20240;-81
2023/03/04 06:42:58;;;;;;;1.27;1.17;;;;;;;;;;5013595;28;20195;-81
2023/03/04 06:45:28;;;;;;;1.87;0.83;;;;;;;;;;5013948;28;20207;-81
2023/03/04 06:47:56;;;;;;;0.80;0.80;;;;;;;;;;5014033;28;20296;-82
2023/03/04 06:50:25;;;;;;;0.80;0.80;;;;;;;;;;5013448;28;20230;-82
2023/03/04 06:52:53;;;;;;;0.80;0.80;;;;;;;;;;5013634;28;20196;-82
2023/03/04 06:55:21;;;;;;;1.43;1.00;;;;;;;;;;5013834;28;20250;-81
2023/03/04 06:57:50;;;;;;;1.57;0.90;;;;;;;;;;5013321;28;20322;-81
2023/03/04 07:00:19;;;;;;;1.03;1.03;;;;;;;;;;5013884;28;20199;-81
2023/03/04 07:02:52;;;;;;;1.27;1.03;;;;;;;;;;5013339;28;20220;-82
2023/03/04 07:05:22;;;;;;;1.43;1.20;;;;;;;;;;5013591;28;20199;-81
2023/03/04 07:07:52;;;;;;;0.97;0.97;;;;;;;;;;5013254;28;20215;-81
2023/03/04 07:10:21;;;;;;;0.80;0.80;;;;;;;;;;5013457;28;20299;-81
2023/03/04 07:12:50;;;;;;;0.70;0.70;;;;;;;;;;5013147;28;20227;-81
2023/03/04 07:15:18;;;;;;;1.07;1.00;;;;;;;;;;5013242;28;20211;-82
2023/03/04 07:17:47;;;;;;;1.00;1.00;;;;;;;;;;5013220;28;20246;-82
2023/03/04 07:20:16;;;;;;;4.10;2.20;;;;;;;;;;5013250;28;20211;-81
2023/03/04 07:22:45;;;;;;;1.07;1.03;;;;;;;;;;5013525;28;20231;-81
2023/03/04 07:25:13;;;;;;;1.00;1.00;;;;;;;;;;5015299;28;20235;-81
2023/03/04 07:27:41;;;;;;;1.40;1.30;;;;;;;;;;5016807;28;20254;-82
2023/03/04 07:30:11;;;;;;;1.07;1.07;;;;;;;;;;5016792;28;20258;-83
2023/03/04 07:32:39;;;;;;;0.70;0.70;;;;;;;;;;5016750;28;20246;-84
2023/03/04 07:35:08;;;;;;;0.70;0.70;;;;;;;;;;5017024;28;20212;-84
2023/03/04 07:37:40;;;;;;;0.80;0.80;;;;;;;;;;5016907;28;20214;-85
2023/03/04 07:40:09;;;;;;;0.80;0.80;;;;;;;;;;5017047;28;20291;-85
2023/03/04 07:42:38;;;;;;;0.80;0.80;;;;;;;;;;5016570;28;20222;-84
2023/03/04 07:45:07;;;;;;;0.70;0.70;;;;;;;;;;5016608;28;20267;-84
2023/03/04 07:47:36;;;;;;;0.80;0.80;;;;;;;;;;5016642;28;20262;-84
2023/03/04 07:50:04;;;;;;;0.80;0.80;;;;;;;;;;5016531;28;20196;-83
2023/03/04 07:52:33;;;;;;;0.80;0.80;;;;;;;;;;5016280;28;20207;-83
2023/03/04 07:55:03;;;;;;;0.70;0.70;;;;;;;;;;5016512;28;20299;-83
2023/03/04 07:57:31;;;;;;;0.70;0.70;;;;;;;;;;5016665;28;20232;-83
2023/03/04 07:59:59;;;;;;;0.70;0.70;;;;;;;;;;5017372;28;20235;-83
2023/03/04 08:02:28;;;;;;;0.80;0.80;;;;;;;;;;5016728;28;20207;-82
2023/03/04 08:04:56;;;;;;;0.70;0.70;;;;;;;;;;5016264;28;20204;-83
2023/03/04 08:07:25;;;;;;;0.70;0.70;;;;;;;;;;5016085;28;20223;-83
2023/03/04 08:09:53;;;;;;;0.70;0.70;;;;;;;;;;5016311;28;20214;-82
2023/03/04 08:12:23;;;;;;;0.70;0.70;;;;;;;;;;5016470;28;20195;-83
2023/03/04 08:14:52;;;;;;;0.77;0.77;;;;;;;;;;5016338;28;20298;-83
2023/03/04 08:17:21;;;;;;;0.73;0.73;;;;;;;;;;5016395;28;20223;-83
2023/03/04 08:19:49;;;;;;;0.70;0.70;;;;;;;;;;5016166;28;20284;-83
2023/03/04 08:22:17;;;;;;;0.80;0.80;;;;;;;;;;5016826;28;20203;-83
2023/03/04 08:24:46;;;;;;;0.70;0.70;;;;;;;;;;5016300;28;20231;-83
2023/03/04 08:27:14;;;;;;;0.70;0.70;;;;;;;;;;5015864;28;20199;-83
2023/03/04 08:29:44;;;;;;;0.77;0.77;;;;;;;;;;5015158;28;20254;-83
2023/03/04 08:32:12;;;;;;;0.70;0.70;;;;;;;;;;5015897;28;20210;-84
2023/03/04 08:34:41;;;;;;;0.70;0.70;;;;;;;;;;5017102;28;20203;-83
2023/03/04 08:37:09;;;;;;;0.70;0.70;;;;;;;;;;5014683;28;20228;-84
2023/03/04 08:39:37;;;;;;;0.70;0.70;;;;;;;;;;5016191;28;20224;-82
2023/03/04 08:42:06;;;;;;;0.70;0.70;;;;;;;;;;5015806;28;20205;-82
2023/03/04 08:44:34;;;;;;;0.70;0.70;;;;;;;;;;5016153;28;20262;-84
2023/03/04 08:47:04;;;;;;;0.70;0.70;;;;;;;;;;5016173;28;20234;-85
2023/03/04 08:49:32;;;;;;;0.70;0.70;;;;;;;;;;5016051;28;20302;-84
2023/03/04 08:52:01;;;;;;;0.70;0.70;;;;;;;;;;5015921;28;20294;-84
2023/03/04 08:54:29;;;;;;;0.70;0.70;;;;;;;;;;5015791;28;20306;-82
2023/03/04 08:56:57;;;;;;;0.70;0.70;;;;;;;;;;5015792;28;20291;-84
2023/03/04 08:59:26;;;;;;;0.70;0.70;;;;;;;;;;5016172;28;20235;-85
2023/03/04 09:01:54;;;;;;;0.70;0.70;;;;;;;;;;5015826;28;20223;-85
2023/03/04 09:04:24;;;;;;;0.70;0.70;;;;;;;;;;5015739;28;20200;-85
2023/03/04 09:06:52;;;;;;;0.70;0.70;;;;;;;;;;5015448;28;20254;-85
2023/03/04 09:09:21;;;;;;;0.70;0.70;;;;;;;;;;5014732;28;20231;-85
2023/03/04 09:11:49;;;;;;;0.70;0.70;;;;;;;;;;5015196;28;20257;-82
2023/03/04 09:14:18;;;;;;;0.70;0.70;;;;;;;;;;5014584;28;20200;-82
2023/03/04 09:16:46;;;;;;;0.70;0.70;;;;;;;;;;5014373;28;20207;-82
2023/03/04 09:19:15;;;;;;;0.70;0.70;;;;;;;;;;5014139;28;20192;-82
2023/03/04 09:21:44;;;;;;;0.70;0.70;;;;;;;;;;5014263;28;20390;-86
2023/03/04 09:24:13;;;;;;;0.70;0.70;;;;;;;;;;5013966;28;20294;-86
2023/03/04 09:26:41;;;;;;;0.70;0.70;;;;;;;;;;5014602;28;20204;-87
2023/03/04 09:29:10;;;;;;;0.70;0.70;;;;;;;;;;5014406;28;20295;-86
2023/03/04 09:31:39;;;;;;;0.70;0.70;;;;;;;;;;5014613;28;20207;-86
2023/03/04 09:34:07;;;;;;;0.70;0.70;;;;;;;;;;5014624;28;20263;-87
2023/03/04 09:36:36;;;;;;;0.70;0.70;;;;;;;;;;5014266;28;20298;-87
2023/03/04 09:39:06;;;;;;;0.70;0.70;;;;;;;;;;5015110;28;20227;-86
2023/03/04 09:41:37;;;;;;;0.70;0.70;;;;;;;;;;5014531;28;20262;-86
2023/03/04 09:44:08;;;;;;;0.70;0.70;;;;;;;;;;5014414;28;20217;-86
2023/03/04 09:46:38;;;;;;;0.70;0.70;;;;;;;;;;5014109;28;20272;-86
2023/03/04 09:49:07;;;;;;;0.70;0.70;;;;;;;;;;5014109;28;20224;-85
2023/03/04 09:51:42;;;;;;;0.70;0.70;;;;;;;;;;5014598;28;20234;-85
2023/03/04 09:54:13;;;;;;;0.70;0.70;;;;;;;;;;5014617;28;20211;-86
2023/03/04 09:56:42;;;;;;;0.70;0.70;;;;;;;;;;5014334;28;20271;-86
2023/03/04 09:59:16;;;;;;;0.70;0.70;;;;;;;;;;5014273;28;20200;-86
2023/03/04 10:01:48;;;;;;;0.70;0.70;;;;;;;;;;5014511;28;20258;-85
2023/03/04 10:04:18;;;;;;;0.70;0.70;;;;;;;;;;5014266;28;20201;-86
2023/03/04 10:06:53;;;;;;;0.60;0.60;;;;;;;;;;5014195;28;20201;-85
2023/03/04 10:09:25;;;;;;;0.70;0.70;;;;;;;;;;5013712;28;20278;-85
2023/03/04 10:12:00;;;;;;;0.60;0.60;;;;;;;;;;5014602;28;20295;-86
2023/03/04 10:14:34;;;;;;;0.60;0.60;;;;;;;;;;5014192;28;20215;-85
2023/03/04 10:17:06;;;;;;;0.70;0.70;;;;;;;;;;5013544;28;20331;-85
2023/03/04 10:19:39;;;;;;;0.70;0.70;;;;;;;;;;5013920;28;20209;-86
2023/03/04 10:22:16;;;;;;;0.67;0.67;;;;;;;;;;5014109;28;20357;-85
2023/03/04 10:24:46;;;;;;;0.70;0.70;;;;;;;;;;5014202;28;20259;-86
2023/03/04 10:27:17;;;;;;;0.70;0.70;;;;;;;;;;5013987;28;20244;-85
2023/03/04 10:29:46;;;;;;;0.70;0.70;;;;;;;;;;5013781;28;20316;-84
2023/03/04 10:32:17;;;;;;;0.70;0.70;;;;;;;;;;5013926;28;20214;-84
2023/03/04 10:34:46;;;;;;;0.70;0.70;;;;;;;;;;5014037;28;20200;-85
2023/03/04 10:37:14;;;;;;;0.60;0.60;;;;;;;;;;5014210;28;20208;-85
2023/03/04 10:39:44;;;;;;;0.70;0.70;;;;;;;;;;5014116;28;20216;-85
2023/03/04 10:42:28;;;;;;;0.70;0.70;;;;;;;;;;5013974;28;20295;-85
2023/03/04 10:44:57;;;;;;;0.70;0.70;;;;;;;;;;5013984;28;20205;-85
2023/03/04 10:47:27;;;;;;;0.70;0.70;;;;;;;;;;5013783;28;20273;-85
2023/03/04 10:49:56;;;;;;;0.70;0.70;;;;;;;;;;5013256;28;20216;-85
2023/03/04 10:52:28;;;;;;;0.70;0.70;;;;;;;;;;5013704;28;20197;-85
2023/03/04 10:54:58;;;;;;;0.70;0.70;;;;;;;;;;5013813;28;20206;-85
2023/03/04 10:57:33;;;;;;;0.70;0.70;;;;;;;;;;5013242;28;20233;-85
2023/03/04 11:00:02;;;;;;;0.70;0.70;;;;;;;;;;5015584;28;20291;-85
2023/03/04 11:02:31;;;;;;;0.70;0.70;;;;;;;;;;5016634;28;20197;-84
2023/03/04 11:05:17;;;;;;;0.70;0.70;;;;;;;;;;5017072;28;20263;-84
2023/03/04 11:07:46;;;;;;;0.70;0.70;;;;;;;;;;5016945;28;20201;-84
2023/03/04 11:10:24;;;;;;;0.70;0.70;;;;;;;;;;5016289;28;20212;-82
2023/03/04 11:12:56;;;;;;;0.70;0.70;;;;;;;;;;5016490;28;20236;-83
2023/03/04 11:15:27;;;;;;;0.70;0.70;;;;;;;;;;5017078;28;20209;-82
2023/03/04 11:17:55;;;;;;;0.70;0.70;;;;;;;;;;5016863;28;20209;-81
2023/03/04 11:20:29;;;;;;;0.70;0.70;;;;;;;;;;5017170;28;20205;-81
2023/03/04 11:22:58;;;;;;;0.70;0.70;;;;;;;;;;5017122;28;20224;-81
2023/03/04 11:25:28;;;;;;;0.80;0.80;;;;;;;;;;5017081;28;20283;-82
2023/03/04 11:27:59;;;;;;;0.73;0.73;;;;;;;;;;5017220;28;20205;-81
2023/03/04 11:30:30;;;;;;;0.70;0.70;;;;;;;;;;5017095;28;20274;-81
2023/03/04 11:33:03;;;;;;;0.70;0.70;;;;;;;;;;5016560;28;20419;-81
2023/03/04 11:35:35;;;;;;;0.70;0.70;;;;;;;;;;5017476;28;20208;-81
2023/03/04 11:38:06;;;;;;;0.70;0.70;;;;;;;;;;5016444;28;20300;-81
2023/03/04 11:40:37;;;;;;;0.70;0.70;;;;;;;;;;5016763;28;20218;-81
2023/03/04 11:43:10;;;;;;;0.70;0.70;;;;;;;;;;5017005;28;20201;-81
2023/03/04 11:45:50;;;;;;;0.70;0.70;;;;;;;;;;5017334;28;20295;-81
2023/03/04 11:48:22;;;;;;;0.70;0.70;;;;;;;;;;5016589;28;20201;-81
2023/03/04 11:50:52;;;;;;;0.70;0.70;;;;;;;;;;5016667;28;20257;-81
2023/03/04 11:53:35;;;;;;;0.70;0.70;;;;;;;;;;5016602;28;20203;-81
2023/03/04 11:56:21;;;;;;;0.70;0.70;;;;;;;;;;5016389;28;20197;-81
2023/03/04 11:59:00;;;;;;;0.70;0.70;;;;;;;;;;5016522;28;20273;-81
2023/03/04 12:01:31;;;;;;;0.70;0.70;;;;;;;;;;5016713;28;20273;-82
2023/03/04 12:04:07;;;;;;;0.70;0.70;;;;;;;;;;5016442;28;20229;-81
2023/03/04 12:06:41;;;;;;;0.70;0.70;;;;;;;;;;5016167;28;20206;-81
2023/03/04 12:09:17;;;;;;;0.70;0.70;;;;;;;;;;5016066;28;20202;-82
2023/03/04 12:11:50;;;;;;;0.70;0.70;;;;;;;;;;5016370;28;20205;-81
2023/03/04 12:14:28;;;;;;;0.70;0.70;;;;;;;;;;5016837;28;20574;-81
2023/03/04 12:17:08;;;;;;;0.70;0.70;;;;;;;;;;5016077;28;20223;-81
2023/03/04 12:19:42;;;;;;;0.70;0.70;;;;;;;;;;5016458;28;20226;-81
2023/03/04 12:22:18;;;;;;;11.03;2.43;;;;;;;;;;5016124;28;20206;-81
2023/03/04 12:25:04;;;;;;;3.93;1.97;;;;;;;;;;5016234;28;20201;-81
2023/03/04 12:27:38;;;;;;;6.13;2.00;;;;;;;;;;5016620;28;20234;-81
2023/03/04 12:30:17;;;;;;;20.67;1.83;;;;;;;;;;5015954;28;20221;-81
2023/03/04 12:32:52;;;;;;;3.77;1.77;;;;;;;;;;5016075;28;20215;-81
2023/03/04 12:35:28;;;;;;;5.37;1.93;;;;;;;;;;5016169;28;20213;-81
2023/03/04 12:38:08;;;;;;;2.17;1.83;;;;;;;;;;5015440;28;20296;-81
2023/03/04 12:40:39;;;;;;;4.70;2.23;;;;;;;;;;5015517;28;20242;-81
2023/03/04 12:43:17;;;;;;;3.50;1.87;;;;;;;;;;5015283;28;20466;-81
2023/03/04 12:45:50;;;;;;;5.03;2.77;;;;;;;;;;5016222;28;20195;-81
2023/03/04 12:48:24;;;;;;;12.50;2.03;;;;;;;;;;5015181;28;20475;-81
2023/03/04 12:50:56;;;;;;;2.03;1.43;;;;;;;;;;5015296;28;20222;-81
2023/03/04 12:53:29;;;;;;;1.53;1.33;;;;;;;;;;5015415;28;20251;-82
2023/03/04 12:55:58;;;;;;;1.63;1.37;;;;;;;;;;5015342;28;20191;-82
2023/03/04 12:58:28;;;;;;;3.13;1.77;;;;;;;;;;5015046;28;20236;-82
2023/03/04 13:01:04;;;;;;;3.30;2.03;;;;;;;;;;5015425;28;20202;-82
2023/03/04 13:03:38;;;;;;;3.67;2.00;;;;;;;;;;5015119;28;20203;-81
2023/03/04 13:06:13;;;;;;;3.30;2.30;;;;;;;;;;5015054;28;20440;-81
2023/03/04 13:08:47;;;;;;;8.33;2.53;;;;;;;;;;5014911;28;20233;-82
2023/03/04 13:11:41;;;;;;;4.87;1.60;;;;;;;;;;5014958;28;20314;-81
2023/03/04 13:14:23;;;;;;;4.07;1.90;;;;;;;;;;5015033;28;20205;-82
2023/03/04 13:16:54;;;;;;;2.20;1.97;;;;;;;;;;5015269;28;20201;-81
2023/03/04 13:19:41;;;;;;;1.53;1.43;;;;;;;;;;5014445;28;20214;-81
2023/03/04 13:22:25;;;;;;;2.83;1.30;;;;;;;;;;5014734;28;20243;-81
2023/03/04 13:24:54;;;;;;;4.63;1.50;;;;;;;;;;5014350;28;20241;-81
2023/03/04 13:27:49;;;;;;;2.70;2.30;;;;;;;;;;5014819;28;20260;-81
2023/03/04 13:30:36;;;;;;;2.97;2.20;;;;;;;;;;4979702;28;20262;-81
2023/03/04 13:33:20;;;;;;;3.20;1.50;;;;;;;;;;5014459;28;20233;-81
2023/03/04 13:35:51;;;;;;;2.53;1.60;;;;;;;;;;5014570;28;20198;-81
2023/03/04 13:38:22;;;;;;;1.17;1.17;;;;;;;;;;5014308;28;20255;-81
2023/03/04 13:41:05;;;;;;;4.43;2.17;;;;;;;;;;5014681;28;20304;-81
2023/03/04 13:43:38;;;;;;;2.03;1.50;;;;;;;;;;5014377;28;20205;-81
2023/03/04 13:46:26;;;;;;;5.70;1.90;;;;;;;;;;5014524;28;20232;-81
2023/03/04 13:49:06;;;;;;;4.67;1.87;;;;;;;;;;5014422;28;20209;-81
2023/03/04 13:51:40;;;;;;;4.73;3.10;;;;;;;;;;5014048;28;20223;-80
2023/03/04 13:54:13;;;;;;;3.07;1.30;;;;;;;;;;5014224;28;20251;-81
2023/03/04 13:56:43;;;;;;;1.73;1.53;;;;;;;;;;5014104;28;20201;-80
2023/03/04 13:59:22;;;;;;;14.60;2.07;;;;;;;;;;5014195;28;20297;-81
2023/03/04 14:01:55;;;;;;;5.13;1.63;;;;;;;;;;5014117;28;20206;-81
2023/03/04 14:04:25;;;;;;;6.00;1.33;;;;;;;;;;5013746;28;20212;-81
2023/03/04 14:06:57;;;;;;;2.13;1.27;;;;;;;;;;5013972;28;20260;-82
2023/03/04 14:09:27;;;;;;;1.00;1.00;;;;;;;;;;5013979;28;20247;-81
2023/03/04 14:11:56;;;;;;;3.73;1.80;;;;;;;;;;5013562;28;20222;-82
2023/03/04 14:14:27;;;;;;;3.27;1.57;;;;;;;;;;5014213;28;20209;-81
2023/03/04 14:16:59;;;;;;;3.60;1.50;;;;;;;;;;5013607;28;20197;-82
2023/03/04 14:19:29;;;;;;;2.73;2.10;;;;;;;;;;5014033;28;20295;-82
2023/03/04 14:22:00;;;;;;;1.63;1.53;;;;;;;;;;5013687;28;20285;-81
2023/03/04 14:24:29;;;;;;;1.43;1.33;;;;;;;;;;5013669;28;20243;-81
2023/03/04 14:27:07;;;;;;;4.47;2.03;;;;;;;;;;5013082;28;20211;-82
2023/03/04 14:29:35;;;;;;;3.33;1.50;;;;;;;;;;5013472;28;20241;-82
2023/03/04 14:32:05;;;;;;;1.00;1.00;;;;;;;;;;5012740;28;20218;-82
2023/03/04 14:34:35;;;;;;;1.30;1.30;;;;;;;;;;5015318;28;20217;-82
2023/03/04 14:37:19;;;;;;;2.40;1.10;;;;;;;;;;5017868;28;20257;-82
2023/03/04 14:39:49;;;;;;;8.57;1.60;;;;;;;;;;5017149;28;20229;-82
2023/03/04 14:42:19;;;;;;;1.50;1.30;;;;;;;;;;5017779;28;20217;-82
2023/03/04 14:44:49;;;;;;;2.63;0.90;;;;;;;;;;5017630;28;20202;-82
2023/03/04 14:47:19;;;;;;;3.30;1.23;;;;;;;;;;5017824;28;20272;-82
2023/03/04 14:49:48;;;;;;;2.83;1.40;;;;;;;;;;5017701;28;20201;-82
2023/03/04 14:52:40;;;;;;;2.27;1.40;;;;;;;;;;5017718;28;20225;-82
2023/03/04 14:55:17;;;;;;;0.93;0.93;;;;;;;;;;5002994;28;20205;-82
2023/03/04 14:57:46;;;;;;;1.10;0.93;;;;;;;;;;5018044;28;20234;-82
2023/03/04 15:00:16;;;;;;;2.03;1.80;;;;;;;;;;5017444;28;20194;-82
2023/03/04 15:02:44;;;;;;;1.33;1.23;;;;;;;;;;5017541;28;20220;-82